sensor_id;sensor_type;location;lat;lon;timestamp;temperature;humidity
21676;DHT22;10999;51.332;9.458;2023-04-01T00:01:04;9.00;99.90
21676;DHT22;10999;51.332;9.458;2023-04-01T00:03:32;9.00;99.90
21676;DHT22;10999;51.332;9.458;2023-04-01T00:06:00;9.00;99.90
21676;DHT22;10999;51.332;9.458;2023-04-01T00:08:27;9.00;99.90
21676;DHT22;10999;51.332;9.458;2023-04-01T00:10:55;9.00;99.90
21676;DHT22;10999;51.332;9.458;2023-04-01T00:13:22;9.00;99.90
21676;DHT22;10999;51.332;9.458;2023-04-01T00:15:49;9.00;99.90
21676;DHT22;10999;51.332;9.458;2023-04-01T00:18:16;9.00;99.90
21676;DHT22;10999;51.332;9.458;2023-04-01T00:20:49;9.00;99.90
21676;DHT22;10999;51.332;9.458;2023-04-01T00:23:17;9.00;99.90
21676;DHT22;10999;51.332;9.458;2023-04-01T00:25:45;9.00;99.90
21676;DHT22;10999;51.332;9.458;2023-04-01T00:28:16;9.00;99.90
21676;DHT22;10999;51.332;9.458;2023-04-01T00:30:43;9.00;99.90
21676;DHT22;10999;51.332;9.458;2023-04-01T00:33:09;9.00;99.90
21676;DHT22;10999;51.332;9.458;2023-04-01T00:35:37;8.90;99.90
21676;DHT22;10999;51.332;9.458;2023-04-01T00:38:04;8.90;99.90
21676;DHT22;10999;51.332;9.458;2023-04-01T00:40:35;8.90;99.90
21676;DHT22;10999;51.332;9.458;2023-04-01T00:43:03;8.90;99.90
21676;DHT22;10999;51.332;9.458;2023-04-01T00:45:38;8.90;99.90
21676;DHT22;10999;51.332;9.458;2023-04-01T00:48:09;8.90;99.90
21676;DHT22;10999;51.332;9.458;2023-04-01T00:50:37;8.90;99.90
21676;DHT22;10999;51.332;9.458;2023-04-01T00:53:07;8.90;99.90
21676;DHT22;10999;51.332;9.458;2023-04-01T00:55:38;8.80;99.90
21676;DHT22;10999;51.332;9.458;2023-04-01T00:58:09;8.80;99.90
21676;DHT22;10999;51.332;9.458;2023-04-01T01:00:38;8.80;99.90
21676;DHT22;10999;51.332;9.458;2023-04-01T01:03:04;8.80;99.90
21676;DHT22;10999;51.332;9.458;2023-04-01T01:05:54;8.80;99.90
21676;DHT22;10999;51.332;9.458;2023-04-01T01:11:08;8.80;99.90
21676;DHT22;10999;51.332;9.458;2023-04-01T01:13:54;8.80;99.90
21676;DHT22;10999;51.332;9.458;2023-04-01T01:16:25;8.80;99.90
21676;DHT22;10999;51.332;9.458;2023-04-01T01:22:00;8.80;99.90
21676;DHT22;10999;51.332;9.458;2023-04-01T01:27:11;8.80;99.90
21676;DHT22;10999;51.332;9.458;2023-04-01T01:30:04;8.80;99.90
21676;DHT22;10999;51.332;9.458;2023-04-01T01:35:38;8.80;99.90
21676;DHT22;10999;51.332;9.458;2023-04-01T01:38:11;8.80;99.90
21676;DHT22;10999;51.332;9.458;2023-04-01T01:40:43;8.80;99.90
21676;DHT22;10999;51.332;9.458;2023-04-01T01:43:14;8.80;99.90
21676;DHT22;10999;51.332;9.458;2023-04-01T01:45:48;8.80;99.90
21676;DHT22;10999;51.332;9.458;2023-04-01T01:48:16;8.80;99.90
21676;DHT22;10999;51.332;9.458;2023-04-01T01:50:44;8.80;99.90
21676;DHT22;10999;51.332;9.458;2023-04-01T01:53:13;8.80;99.90
21676;DHT22;10999;51.332;9.458;2023-04-01T01:55:45;8.70;99.90
21676;DHT22;10999;51.332;9.458;2023-04-01T01:58:32;8.80;99.90
21676;DHT22;10999;51.332;9.458;2023-04-01T02:01:03;8.70;99.90
21676;DHT22;10999;51.332;9.458;2023-04-01T02:03:35;8.80;99.90
21676;DHT22;10999;51.332;9.458;2023-04-01T02:06:10;8.80;99.90
21676;DHT22;10999;51.332;9.458;2023-04-01T02:11:10;8.80;99.90
21676;DHT22;10999;51.332;9.458;2023-04-01T02:13:55;8.70;99.90
21676;DHT22;10999;51.332;9.458;2023-04-01T02:16:24;8.80;99.90
21676;DHT22;10999;51.332;9.458;2023-04-01T02:18:55;8.80;99.90
21676;DHT22;10999;51.332;9.458;2023-04-01T02:21:24;8.80;99.90
21676;DHT22;10999;51.332;9.458;2023-04-01T02:23:53;8.70;99.90
21676;DHT22;10999;51.332;9.458;2023-04-01T02:26:22;8.70;99.90
21676;DHT22;10999;51.332;9.458;2023-04-01T02:28:50;8.70;99.90
21676;DHT22;10999;51.332;9.458;2023-04-01T02:31:19;8.70;99.90
21676;DHT22;10999;51.332;9.458;2023-04-01T02:33:46;8.80;99.90
21676;DHT22;10999;51.332;9.458;2023-04-01T02:36:14;8.70;99.90
21676;DHT22;10999;51.332;9.458;2023-04-01T02:38:43;8.70;99.90
21676;DHT22;10999;51.332;9.458;2023-04-01T02:41:11;8.70;99.90
21676;DHT22;10999;51.332;9.458;2023-04-01T02:43:38;8.70;99.90
21676;DHT22;10999;51.332;9.458;2023-04-01T02:46:05;8.80;99.90
21676;DHT22;10999;51.332;9.458;2023-04-01T02:48:32;8.80;99.90
21676;DHT22;10999;51.332;9.458;2023-04-01T02:50:59;8.70;99.90
21676;DHT22;10999;51.332;9.458;2023-04-01T02:53:25;8.70;99.90
21676;DHT22;10999;51.332;9.458;2023-04-01T02:55:52;8.70;99.90
21676;DHT22;10999;51.332;9.458;2023-04-01T02:58:19;8.70;99.90
21676;DHT22;10999;51.332;9.458;2023-04-01T03:00:45;8.70;99.90
21676;DHT22;10999;51.332;9.458;2023-04-01T03:03:12;8.70;99.90
21676;DHT22;10999;51.332;9.458;2023-04-01T03:05:40;8.70;99.90
21676;DHT22;10999;51.332;9.458;2023-04-01T03:08:06;8.70;99.90
21676;DHT22;10999;51.332;9.458;2023-04-01T03:10:33;8.70;99.90
21676;DHT22;10999;51.332;9.458;2023-04-01T03:13:00;8.70;99.90
21676;DHT22;10999;51.332;9.458;2023-04-01T03:15:26;8.70;99.90
21676;DHT22;10999;51.332;9.458;2023-04-01T03:17:53;8.70;99.90
21676;DHT22;10999;51.332;9.458;2023-04-01T03:20:20;8.70;99.90
21676;DHT22;10999;51.332;9.458;2023-04-01T03:22:47;8.70;99.90
21676;DHT22;10999;51.332;9.458;2023-04-01T03:25:13;8.70;99.90
21676;DHT22;10999;51.332;9.458;2023-04-01T03:27:40;8.70;99.50
21676;DHT22;10999;51.332;9.458;2023-04-01T03:30:07;8.70;99.80
21676;DHT22;10999;51.332;9.458;2023-04-01T03:32:34;8.70;99.40
21676;DHT22;10999;51.332;9.458;2023-04-01T03:35:01;8.70;99.70
21676;DHT22;10999;51.332;9.458;2023-04-01T03:37:28;8.70;99.80
21676;DHT22;10999;51.332;9.458;2023-04-01T03:39:54;8.70;99.50
21676;DHT22;10999;51.332;9.458;2023-04-01T03:42:21;8.70;99.50
21676;DHT22;10999;51.332;9.458;2023-04-01T03:44:48;8.70;99.50
21676;DHT22;10999;51.332;9.458;2023-04-01T03:47:14;8.70;99.60
21676;DHT22;10999;51.332;9.458;2023-04-01T03:49:41;8.70;99.40
21676;DHT22;10999;51.332;9.458;2023-04-01T03:52:10;8.60;99.20
21676;DHT22;10999;51.332;9.458;2023-04-01T03:54:37;8.70;99.20
21676;DHT22;10999;51.332;9.458;2023-04-01T03:57:04;8.70;99.70
21676;DHT22;10999;51.332;9.458;2023-04-01T03:59:31;8.70;98.90
21676;DHT22;10999;51.332;9.458;2023-04-01T04:01:57;8.70;99.00
21676;DHT22;10999;51.332;9.458;2023-04-01T04:04:24;8.70;99.10
21676;DHT22;10999;51.332;9.458;2023-04-01T04:06:52;8.70;99.00
21676;DHT22;10999;51.332;9.458;2023-04-01T04:09:19;8.70;98.90
21676;DHT22;10999;51.332;9.458;2023-04-01T04:11:45;8.60;98.60
21676;DHT22;10999;51.332;9.458;2023-04-01T04:14:12;8.60;98.60
21676;DHT22;10999;51.332;9.458;2023-04-01T04:16:39;8.70;98.20
21676;DHT22;10999;51.332;9.458;2023-04-01T04:19:06;8.70;98.30
21676;DHT22;10999;51.332;9.458;2023-04-01T04:21:32;8.70;98.60
21676;DHT22;10999;51.332;9.458;2023-04-01T04:24:00;8.60;98.50
21676;DHT22;10999;51.332;9.458;2023-04-01T04:26:27;8.70;98.60
21676;DHT22;10999;51.332;9.458;2023-04-01T04:28:54;8.60;98.50
21676;DHT22;10999;51.332;9.458;2023-04-01T04:31:23;8.60;98.80
21676;DHT22;10999;51.332;9.458;2023-04-01T04:33:50;8.60;99.10
21676;DHT22;10999;51.332;9.458;2023-04-01T04:36:19;8.60;99.00
21676;DHT22;10999;51.332;9.458;2023-04-01T04:38:46;8.60;99.10
21676;DHT22;10999;51.332;9.458;2023-04-01T04:41:14;8.60;99.40
21676;DHT22;10999;51.332;9.458;2023-04-01T04:43:41;8.60;99.50
21676;DHT22;10999;51.332;9.458;2023-04-01T04:46:09;8.50;99.80
21676;DHT22;10999;51.332;9.458;2023-04-01T04:48:37;8.50;99.50
21676;DHT22;10999;51.332;9.458;2023-04-01T04:51:03;8.60;99.60
21676;DHT22;10999;51.332;9.458;2023-04-01T04:53:30;8.50;99.70
21676;DHT22;10999;51.332;9.458;2023-04-01T04:55:57;8.50;99.70
21676;DHT22;10999;51.332;9.458;2023-04-01T04:58:23;8.50;99.90
21676;DHT22;10999;51.332;9.458;2023-04-01T05:00:50;8.50;99.90
21676;DHT22;10999;51.332;9.458;2023-04-01T05:03:17;8.50;99.90
21676;DHT22;10999;51.332;9.458;2023-04-01T05:05:52;8.50;99.90
21676;DHT22;10999;51.332;9.458;2023-04-01T05:08:19;8.40;99.90
21676;DHT22;10999;51.332;9.458;2023-04-01T05:10:46;8.40;99.90
21676;DHT22;10999;51.332;9.458;2023-04-01T05:13:13;8.50;99.90
21676;DHT22;10999;51.332;9.458;2023-04-01T05:15:39;8.40;99.90
21676;DHT22;10999;51.332;9.458;2023-04-01T05:18:06;8.40;99.90
21676;DHT22;10999;51.332;9.458;2023-04-01T05:20:33;8.40;99.90
21676;DHT22;10999;51.332;9.458;2023-04-01T05:23:00;8.40;99.80
21676;DHT22;10999;51.332;9.458;2023-04-01T05:25:27;8.40;99.90
21676;DHT22;10999;51.332;9.458;2023-04-01T05:27:54;8.40;99.90
21676;DHT22;10999;51.332;9.458;2023-04-01T05:30:21;8.40;99.60
21676;DHT22;10999;51.332;9.458;2023-04-01T05:32:48;8.50;99.90
21676;DHT22;10999;51.332;9.458;2023-04-01T05:35:14;8.50;99.90
21676;DHT22;10999;51.332;9.458;2023-04-01T05:37:41;8.40;99.70
21676;DHT22;10999;51.332;9.458;2023-04-01T05:40:08;8.40;99.60
21676;DHT22;10999;51.332;9.458;2023-04-01T05:42:35;8.40;99.50
21676;DHT22;10999;51.332;9.458;2023-04-01T05:45:04;8.50;99.90
21676;DHT22;10999;51.332;9.458;2023-04-01T05:47:31;8.40;99.70
21676;DHT22;10999;51.332;9.458;2023-04-01T05:49:58;8.40;99.90
21676;DHT22;10999;51.332;9.458;2023-04-01T05:52:25;8.40;99.90
21676;DHT22;10999;51.332;9.458;2023-04-01T05:54:52;8.40;99.90
21676;DHT22;10999;51.332;9.458;2023-04-01T05:57:18;8.40;99.90
21676;DHT22;10999;51.332;9.458;2023-04-01T05:59:45;8.40;99.90
21676;DHT22;10999;51.332;9.458;2023-04-01T06:02:12;8.40;99.90
21676;DHT22;10999;51.332;9.458;2023-04-01T06:04:40;8.30;99.90
21676;DHT22;10999;51.332;9.458;2023-04-01T06:07:15;8.30;99.90
21676;DHT22;10999;51.332;9.458;2023-04-01T06:09:44;8.30;99.90
21676;DHT22;10999;51.332;9.458;2023-04-01T06:12:25;8.30;99.90
21676;DHT22;10999;51.332;9.458;2023-04-01T06:15:25;8.30;99.90
21676;DHT22;10999;51.332;9.458;2023-04-01T06:21:03;8.40;99.90
21676;DHT22;10999;51.332;9.458;2023-04-01T06:26:20;8.40;99.90
21676;DHT22;10999;51.332;9.458;2023-04-01T06:32:06;8.40;99.90
21676;DHT22;10999;51.332;9.458;2023-04-01T06:35:11;8.40;99.90
21676;DHT22;10999;51.332;9.458;2023-04-01T06:38:09;8.40;99.90
21676;DHT22;10999;51.332;9.458;2023-04-01T06:43:18;8.40;99.90
21676;DHT22;10999;51.332;9.458;2023-04-01T06:46:16;8.50;99.90
21676;DHT22;10999;51.332;9.458;2023-04-01T06:48:51;8.50;99.90
21676;DHT22;10999;51.332;9.458;2023-04-01T06:51:37;8.40;99.90
21676;DHT22;10999;51.332;9.458;2023-04-01T06:54:16;8.50;99.90
21676;DHT22;10999;51.332;9.458;2023-04-01T06:56:45;8.50;99.90
21676;DHT22;10999;51.332;9.458;2023-04-01T06:59:22;8.50;99.90
21676;DHT22;10999;51.332;9.458;2023-04-01T07:04:40;8.50;99.90
21676;DHT22;10999;51.332;9.458;2023-04-01T07:07:18;8.50;99.90
21676;DHT22;10999;51.332;9.458;2023-04-01T07:09:52;8.50;99.90
21676;DHT22;10999;51.332;9.458;2023-04-01T07:15:03;8.50;99.90
21676;DHT22;10999;51.332;9.458;2023-04-01T07:17:33;8.50;99.90
21676;DHT22;10999;51.332;9.458;2023-04-01T07:20:17;8.60;99.90
21676;DHT22;10999;51.332;9.458;2023-04-01T07:22:49;8.60;99.90
21676;DHT22;10999;51.332;9.458;2023-04-01T07:25:21;8.60;99.90
21676;DHT22;10999;51.332;9.458;2023-04-01T07:27:50;8.60;99.90
21676;DHT22;10999;51.332;9.458;2023-04-01T07:30:21;8.60;99.90
21676;DHT22;10999;51.332;9.458;2023-04-01T07:35:41;8.70;99.90
21676;DHT22;10999;51.332;9.458;2023-04-01T07:38:28;8.70;99.90
21676;DHT22;10999;51.332;9.458;2023-04-01T07:43:36;8.80;99.90
21676;DHT22;10999;51.332;9.458;2023-04-01T07:49:24;8.90;99.90
21676;DHT22;10999;51.332;9.458;2023-04-01T07:52:08;8.90;99.90
21676;DHT22;10999;51.332;9.458;2023-04-01T07:54:42;8.90;99.90
21676;DHT22;10999;51.332;9.458;2023-04-01T08:00:02;8.90;99.90
21676;DHT22;10999;51.332;9.458;2023-04-01T08:10:52;9.00;99.90
21676;DHT22;10999;51.332;9.458;2023-04-01T08:13:45;9.10;99.90
21676;DHT22;10999;51.332;9.458;2023-04-01T08:19:20;9.30;99.90
21676;DHT22;10999;51.332;9.458;2023-04-01T08:21:52;9.20;97.90
21676;DHT22;10999;51.332;9.458;2023-04-01T08:24:53;9.30;98.60
21676;DHT22;10999;51.332;9.458;2023-04-01T08:27:28;9.40;99.00
21676;DHT22;10999;51.332;9.458;2023-04-01T08:29:59;9.50;99.30
21676;DHT22;10999;51.332;9.458;2023-04-01T08:32:36;9.50;97.20
21676;DHT22;10999;51.332;9.458;2023-04-01T08:35:19;9.60;97.10
21676;DHT22;10999;51.332;9.458;2023-04-01T08:37:48;9.70;95.80
21676;DHT22;10999;51.332;9.458;2023-04-01T08:43:06;9.60;95.30
21676;DHT22;10999;51.332;9.458;2023-04-01T08:45:52;9.60;94.30
21676;DHT22;10999;51.332;9.458;2023-04-01T08:49:17;9.60;93.50
21676;DHT22;10999;51.332;9.458;2023-04-01T08:56:38;9.70;96.00
21676;DHT22;10999;51.332;9.458;2023-04-01T09:05:35;9.90;96.90
21676;DHT22;10999;51.332;9.458;2023-04-01T09:11:06;9.80;93.90
21676;DHT22;10999;51.332;9.458;2023-04-01T09:25:21;9.80;93.20
21676;DHT22;10999;51.332;9.458;2023-04-01T09:27:56;9.90;93.70
21676;DHT22;10999;51.332;9.458;2023-04-01T09:33:49;9.90;93.10
21676;DHT22;10999;51.332;9.458;2023-04-01T09:44:03;9.90;94.80
21676;DHT22;10999;51.332;9.458;2023-04-01T09:46:56;9.90;94.70
21676;DHT22;10999;51.332;9.458;2023-04-01T09:52:39;9.90;94.90
21676;DHT22;10999;51.332;9.458;2023-04-01T09:58:41;10.00;95.90
21676;DHT22;10999;51.332;9.458;2023-04-01T10:29:37;10.40;94.80
21676;DHT22;10999;51.332;9.458;2023-04-01T10:42:41;10.30;96.50
21676;DHT22;10999;51.332;9.458;2023-04-01T11:09:47;10.30;99.10
21676;DHT22;10999;51.332;9.458;2023-04-01T11:44:16;10.70;95.00
21676;DHT22;10999;51.332;9.458;2023-04-01T11:47:02;10.60;95.30
21676;DHT22;10999;51.332;9.458;2023-04-01T11:55:46;10.50;98.00
21676;DHT22;10999;51.332;9.458;2023-04-01T12:07:22;10.60;99.30
21676;DHT22;10999;51.332;9.458;2023-04-01T12:10:03;10.60;98.90
21676;DHT22;10999;51.332;9.458;2023-04-01T12:13:37;10.70;98.80
21676;DHT22;10999;51.332;9.458;2023-04-01T12:18:33;10.80;99.90
21676;DHT22;10999;51.332;9.458;2023-04-01T12:26:47;10.80;99.60
21676;DHT22;10999;51.332;9.458;2023-04-01T12:32:30;11.00;99.90
21676;DHT22;10999;51.332;9.458;2023-04-01T12:35:03;11.00;99.90
21676;DHT22;10999;51.332;9.458;2023-04-01T12:40:44;11.00;98.00
21676;DHT22;10999;51.332;9.458;2023-04-01T12:46:29;10.90;99.60
21676;DHT22;10999;51.332;9.458;2023-04-01T13:02:49;10.80;99.90
21676;DHT22;10999;51.332;9.458;2023-04-01T13:11:08;10.60;99.90
21676;DHT22;10999;51.332;9.458;2023-04-01T13:16:45;10.80;99.90
21676;DHT22;10999;51.332;9.458;2023-04-01T13:21:58;11.00;99.90
21676;DHT22;10999;51.332;9.458;2023-04-01T13:24:31;11.10;99.30
21676;DHT22;10999;51.332;9.458;2023-04-01T13:27:06;11.10;99.60
21676;DHT22;10999;51.332;9.458;2023-04-01T13:29:55;11.20;99.90
21676;DHT22;10999;51.332;9.458;2023-04-01T13:32:34;11.30;99.90
21676;DHT22;10999;51.332;9.458;2023-04-01T13:35:23;11.30;97.80
21676;DHT22;10999;51.332;9.458;2023-04-01T13:43:43;11.20;97.90
21676;DHT22;10999;51.332;9.458;2023-04-01T13:46:28;11.20;98.50
21676;DHT22;10999;51.332;9.458;2023-04-01T13:49:19;11.10;98.00
21676;DHT22;10999;51.332;9.458;2023-04-01T13:54:37;10.80;98.20
21676;DHT22;10999;51.332;9.458;2023-04-01T14:00:16;10.80;98.70
21676;DHT22;10999;51.332;9.458;2023-04-01T14:11:22;10.80;99.70
21676;DHT22;10999;51.332;9.458;2023-04-01T14:16:47;10.90;98.90
21676;DHT22;10999;51.332;9.458;2023-04-01T14:19:30;10.80;99.10
21676;DHT22;10999;51.332;9.458;2023-04-01T14:25:18;11.00;99.90
21676;DHT22;10999;51.332;9.458;2023-04-01T14:30:42;11.00;98.20
21676;DHT22;10999;51.332;9.458;2023-04-01T14:36:19;11.10;99.10
21676;DHT22;10999;51.332;9.458;2023-04-01T14:39:11;11.10;99.30
21676;DHT22;10999;51.332;9.458;2023-04-01T14:42:37;11.10;98.30
21676;DHT22;10999;51.332;9.458;2023-04-01T14:45:49;11.10;99.00
21676;DHT22;10999;51.332;9.458;2023-04-01T14:50:55;11.10;98.90
21676;DHT22;10999;51.332;9.458;2023-04-01T14:53:27;11.10;99.50
21676;DHT22;10999;51.332;9.458;2023-04-01T14:55:58;11.00;98.70
21676;DHT22;10999;51.332;9.458;2023-04-01T14:58:46;10.90;99.20
21676;DHT22;10999;51.332;9.458;2023-04-01T15:04:57;10.90;99.60
21676;DHT22;10999;51.332;9.458;2023-04-01T15:15:58;11.10;99.90
21676;DHT22;10999;51.332;9.458;2023-04-01T15:18:40;11.00;99.90
21676;DHT22;10999;51.332;9.458;2023-04-01T15:29:47;10.70;99.90
21676;DHT22;10999;51.332;9.458;2023-04-01T15:32:19;10.60;99.90
21676;DHT22;10999;51.332;9.458;2023-04-01T15:35:14;10.60;99.90
21676;DHT22;10999;51.332;9.458;2023-04-01T15:37:56;10.50;99.90
21676;DHT22;10999;51.332;9.458;2023-04-01T15:40:30;10.60;99.90
21676;DHT22;10999;51.332;9.458;2023-04-01T15:43:22;10.60;99.90
21676;DHT22;10999;51.332;9.458;2023-04-01T16:00:29;10.50;99.90
21676;DHT22;10999;51.332;9.458;2023-04-01T16:03:51;10.50;99.90
21676;DHT22;10999;51.332;9.458;2023-04-01T16:58:43;10.10;98.60
21676;DHT22;10999;51.332;9.458;2023-04-01T17:05:10;10.20;98.60
21676;DHT22;10999;51.332;9.458;2023-04-01T17:08:15;10.20;98.50
21676;DHT22;10999;51.332;9.458;2023-04-01T17:11:23;10.10;98.50
21676;DHT22;10999;51.332;9.458;2023-04-01T17:26:43;10.10;98.60
21676;DHT22;10999;51.332;9.458;2023-04-01T17:32:31;10.10;98.60
21676;DHT22;10999;51.332;9.458;2023-04-01T17:35:14;10.00;98.50
21676;DHT22;10999;51.332;9.458;2023-04-01T17:45:37;9.90;98.90
21676;DHT22;10999;51.332;9.458;2023-04-01T17:48:29;9.90;99.10
21676;DHT22;10999;51.332;9.458;2023-04-01T17:51:07;9.80;99.10
21676;DHT22;10999;51.332;9.458;2023-04-01T17:59:20;9.80;99.60
21676;DHT22;10999;51.332;9.458;2023-04-01T18:10:38;9.70;99.90
21676;DHT22;10999;51.332;9.458;2023-04-01T18:13:37;9.70;99.90
21676;DHT22;10999;51.332;9.458;2023-04-01T18:24:18;9.60;99.90
21676;DHT22;10999;51.332;9.458;2023-04-01T18:26:59;9.60;99.90
21676;DHT22;10999;51.332;9.458;2023-04-01T18:32:18;9.50;99.90
21676;DHT22;10999;51.332;9.458;2023-04-01T18:35:12;9.50;99.90
21676;DHT22;10999;51.332;9.458;2023-04-01T18:38:04;9.50;99.90
21676;DHT22;10999;51.332;9.458;2023-04-01T18:46:27;9.50;99.90
21676;DHT22;10999;51.332;9.458;2023-04-01T18:49:10;9.50;99.90
21676;DHT22;10999;51.332;9.458;2023-04-01T18:51:49;9.50;99.90
21676;DHT22;10999;51.332;9.458;2023-04-01T18:54:29;9.50;99.90
21676;DHT22;10999;51.332;9.458;2023-04-01T18:57:11;9.40;99.90
21676;DHT22;10999;51.332;9.458;2023-04-01T18:59:50;9.40;99.90
21676;DHT22;10999;51.332;9.458;2023-04-01T19:05:30;9.40;99.90
21676;DHT22;10999;51.332;9.458;2023-04-01T19:08:28;9.40;99.90
21676;DHT22;10999;51.332;9.458;2023-04-01T19:13:36;9.40;99.90
21676;DHT22;10999;51.332;9.458;2023-04-01T19:16:36;9.40;99.90
21676;DHT22;10999;51.332;9.458;2023-04-01T19:19:24;9.40;99.90
21676;DHT22;10999;51.332;9.458;2023-04-01T19:27:55;9.30;99.90
21676;DHT22;10999;51.332;9.458;2023-04-01T19:33:38;9.30;99.90
21676;DHT22;10999;51.332;9.458;2023-04-01T19:41:57;9.30;99.90
21676;DHT22;10999;51.332;9.458;2023-04-01T19:44:53;9.30;99.90
21676;DHT22;10999;51.332;9.458;2023-04-01T19:52:47;9.30;99.90
21676;DHT22;10999;51.332;9.458;2023-04-01T19:55:57;9.30;99.90
21676;DHT22;10999;51.332;9.458;2023-04-01T19:58:32;9.30;99.90
21676;DHT22;10999;51.332;9.458;2023-04-01T20:01:00;9.30;99.90
21676;DHT22;10999;51.332;9.458;2023-04-01T20:06:35;9.20;99.90
21676;DHT22;10999;51.332;9.458;2023-04-01T20:12:05;9.20;99.90
21676;DHT22;10999;51.332;9.458;2023-04-01T20:14:54;9.20;99.90
21676;DHT22;10999;51.332;9.458;2023-04-01T20:17:41;9.30;99.90
21676;DHT22;10999;51.332;9.458;2023-04-01T20:26:07;9.20;99.90
21676;DHT22;10999;51.332;9.458;2023-04-01T20:29:34;9.20;99.90
21676;DHT22;10999;51.332;9.458;2023-04-01T20:31:44;9.20;99.90
21676;DHT22;10999;51.332;9.458;2023-04-01T20:37:28;9.20;99.90
21676;DHT22;10999;51.332;9.458;2023-04-01T20:42:57;9.20;99.90
21676;DHT22;10999;51.332;9.458;2023-04-01T20:45:28;9.20;99.90
21676;DHT22;10999;51.332;9.458;2023-04-01T20:50:35;9.10;99.90
21676;DHT22;10999;51.332;9.458;2023-04-01T20:53:23;9.10;99.90
21676;DHT22;10999;51.332;9.458;2023-04-01T20:56:15;9.10;99.90
21676;DHT22;10999;51.332;9.458;2023-04-01T21:10:11;9.00;99.90
21676;DHT22;10999;51.332;9.458;2023-04-01T21:24:50;8.90;99.90
21676;DHT22;10999;51.332;9.458;2023-04-01T21:27:37;8.90;99.90
21676;DHT22;10999;51.332;9.458;2023-04-01T21:30:41;8.90;99.90
21676;DHT22;10999;51.332;9.458;2023-04-01T21:33:07;8.90;99.90
21676;DHT22;10999;51.332;9.458;2023-04-01T21:35:51;8.90;99.90
21676;DHT22;10999;51.332;9.458;2023-04-01T21:38:26;8.90;99.90
21676;DHT22;10999;51.332;9.458;2023-04-01T21:41:21;8.90;99.90
21676;DHT22;10999;51.332;9.458;2023-04-01T21:49:56;8.80;99.90
21676;DHT22;10999;51.332;9.458;2023-04-01T22:12:59;8.20;99.90
21676;DHT22;10999;51.332;9.458;2023-04-01T22:18:33;8.10;99.90
21676;DHT22;10999;51.332;9.458;2023-04-01T22:27:30;7.90;99.90
21676;DHT22;10999;51.332;9.458;2023-04-01T22:33:05;7.80;99.90
21676;DHT22;10999;51.332;9.458;2023-04-01T22:36:00;7.80;99.90
21676;DHT22;10999;51.332;9.458;2023-04-01T22:47:18;7.50;99.90
21676;DHT22;10999;51.332;9.458;2023-04-01T22:49:59;7.50;99.90
21676;DHT22;10999;51.332;9.458;2023-04-01T22:52:33;7.40;99.90
21676;DHT22;10999;51.332;9.458;2023-04-01T22:55:13;7.40;99.90
21676;DHT22;10999;51.332;9.458;2023-04-01T22:57:55;7.40;99.90
21676;DHT22;10999;51.332;9.458;2023-04-01T23:00:41;7.30;99.90
21676;DHT22;10999;51.332;9.458;2023-04-01T23:03:24;7.30;99.90
21676;DHT22;10999;51.332;9.458;2023-04-01T23:05:56;7.30;99.90
21676;DHT22;10999;51.332;9.458;2023-04-01T23:11:18;7.20;99.90
21676;DHT22;10999;51.332;9.458;2023-04-01T23:13:50;7.20;99.90
21676;DHT22;10999;51.332;9.458;2023-04-01T23:16:43;7.10;99.90
21676;DHT22;10999;51.332;9.458;2023-04-01T23:31:02;7.00;99.90
21676;DHT22;10999;51.332;9.458;2023-04-01T23:33:37;6.90;99.90
21676;DHT22;10999;51.332;9.458;2023-04-01T23:40:30;6.80;99.90
21676;DHT22;10999;51.332;9.458;2023-04-01T23:44:05;6.70;99.90
21676;DHT22;10999;51.332;9.458;2023-04-01T23:50:35;6.70;99.90
21676;DHT22;10999;51.332;9.458;2023-04-01T23:54:09;6.60;99.90
21676;DHT22;10999;51.332;9.458;2023-04-01T23:56:57;6.60;99.90
